Terminal Aerodrome Forecast
Issued by NWS

Home | Current Version | Previous Version | Text Only | Print | Product List | Glossary On
Versions: 1 2 3 4 5 6 7 8 9 10 11 12 13 14 15 16 17 18 19
000
FTUS42 KILM 081632 AAA
TAFCRE
TAF AMD
KCRE 081632Z 0817/0912 29006KT P6SM SCT015 BKN025
     FM081800 33007KT P6SM SCT025 BKN060
     FM090000 36006KT P6SM SCT250=

USA.gov is the U.S. government's official web portal to all federal, state and local government web resources and services.